Time;durP1;ratioP1;P1;durP2;ratioP2;P2;SDS_P1;SDS_P2;PMS_P1;PMS_P2;Temp;Humidity;BMP_temperature;BMP_pressure;BME280_temperature;BME280_humidity;BME280_pressure;Samples;Min_cycle;Max_cycle;Signal;HPM_P1;HPM_P2
2023/05/06 00:01:13;;;;;;;4.37;2.73;;;;;;;;;;4954148;28;20521;-87
2023/05/06 00:03:39;;;;;;;2.42;2.22;;;;;;;;;;4954140;28;20478;-88
2023/05/06 00:06:07;;;;;;;5.83;3.00;;;;;;;;;;4930400;28;20224;-88
2023/05/06 00:08:33;;;;;;;7.30;3.60;;;;;;;;;;4946571;28;20780;-87
2023/05/06 00:10:59;;;;;;;6.20;3.60;;;;;;;;;;4935280;28;21182;-87
2023/05/06 00:13:25;;;;;;;4.37;3.03;;;;;;;;;;4934110;28;20451;-86
2023/05/06 00:15:51;;;;;;;7.43;3.03;;;;;;;;;;4939764;28;20427;-87
2023/05/06 00:18:17;;;;;;;4.27;3.87;;;;;;;;;;4951546;28;20433;-87
2023/05/06 00:20:43;;;;;;;5.87;4.13;;;;;;;;;;4940251;28;20468;-87
2023/05/06 00:23:09;;;;;;;3.53;3.03;;;;;;;;;;4942682;28;20452;-88
2023/05/06 00:25:35;;;;;;;4.50;3.10;;;;;;;;;;4950667;28;20444;-87
2023/05/06 00:28:01;;;;;;;5.80;3.27;;;;;;;;;;4938960;28;20438;-89
2023/05/06 00:30:27;;;;;;;4.77;4.37;;;;;;;;;;4945676;28;20451;-87
2023/05/06 00:32:53;;;;;;;3.03;2.53;;;;;;;;;;4945986;28;21089;-87
2023/05/06 00:35:19;;;;;;;2.27;2.07;;;;;;;;;;4936188;28;20503;-87
2023/05/06 00:37:45;;;;;;;3.83;2.60;;;;;;;;;;4955441;28;20482;-87
2023/05/06 00:40:12;;;;;;;4.05;3.35;;;;;;;;;;4943461;28;20420;-86
2023/05/06 00:42:38;;;;;;;2.85;2.50;;;;;;;;;;4948124;28;20194;-86
2023/05/06 00:45:05;;;;;;;3.30;2.53;;;13.40;99.90;;;;;;4954195;28;20180;-86
2023/05/06 00:47:31;;;;;;;2.95;2.63;;;;;;;;;;4960300;28;20440;-87
2023/05/06 00:49:57;;;;;;;3.42;2.85;;;;;;;;;;4952865;28;20184;-86
2023/05/06 00:52:23;;;;;;;5.30;3.13;;;;;;;;;;4944846;28;20226;-86
2023/05/06 00:54:49;;;;;;;4.83;3.33;;;;;;;;;;4942620;28;20188;-88
2023/05/06 00:57:15;;;;;;;7.37;3.90;;;;;;;;;;4946164;28;20439;-87
2023/05/06 00:59:41;;;;;;;7.87;2.90;;;;;;;;;;4948405;28;20440;-86
2023/05/06 01:02:08;;;;;;;7.55;3.70;;;13.50;99.90;;;;;;4938776;28;20462;-87
2023/05/06 01:04:34;;;;;;;3.45;3.00;;;13.60;99.90;;;;;;4954969;28;20809;-87
2023/05/06 01:07:26;;;;;;;4.40;3.38;;;13.50;99.90;;;;;;4955176;28;20175;-88
2023/05/06 01:10:18;;;;;;;9.85;3.83;;;13.50;99.90;;;;;;4952623;28;20428;-86
2023/05/06 01:13:00;;;;;;;8.48;3.92;;;13.30;99.90;;;;;;4955737;28;20215;-87
2023/05/06 01:15:37;;;;;;;11.37;4.37;;;13.50;99.90;;;;;;4927675;28;20180;-87
2023/05/06 01:18:08;;;;;;;5.20;4.00;;;13.60;99.90;;;;;;4929012;28;20428;-87
2023/05/06 01:20:37;;;;;;;5.15;3.88;;;13.60;99.90;;;;;;4938097;28;20832;-87
2023/05/06 01:23:08;;;;;;;5.80;4.17;;;13.60;99.90;;;;;;4929787;28;20203;-87
2023/05/06 01:25:34;;;;;;;11.70;4.60;;;;;;;;;;4946113;28;20439;-86
2023/05/06 01:28:00;;;;;;;6.17;3.80;;;;;;;;;;4936961;28;20440;-88
2023/05/06 01:30:33;;;;;;;6.60;4.63;;;13.60;99.90;;;;;;4951403;28;20456;-87
2023/05/06 01:33:06;;;;;;;5.40;4.67;;;13.60;99.90;;;;;;4933207;28;20557;-88
2023/05/06 01:35:51;;;;;;;8.87;5.07;;;13.50;99.90;;;;;;4935729;28;20988;-85
2023/05/06 01:38:33;;;;;;;8.82;5.15;;;13.50;99.90;;;;;;4945315;28;20483;-88
2023/05/06 01:41:00;;;;;;;8.47;5.77;;;13.50;99.90;;;;;;4950267;28;20213;-86
2023/05/06 01:43:29;;;;;;;6.60;5.05;;;13.50;99.90;;;;;;4919585;28;20462;-86
2023/05/06 01:45:55;;;;;;;9.03;5.43;;;;;;;;;;4951212;28;20188;-88
2023/05/06 01:48:26;;;;;;;12.05;4.95;;;13.50;99.90;;;;;;4938552;28;20523;-87
2023/05/06 01:50:52;;;;;;;8.85;4.75;;;;;;;;;;4942743;28;20750;-87
2023/05/06 01:53:18;;;;;;;7.07;5.33;;;;;;;;;;4951643;28;20218;-88
2023/05/06 01:55:44;;;;;;;10.30;4.80;;;;;;;;;;4933706;28;20474;-87
2023/05/06 01:58:10;;;;;;;8.73;5.73;;;;;;;;;;4950528;28;20208;-87
2023/05/06 02:00:38;;;;;;;10.80;6.13;;;13.20;99.90;;;;;;4938705;28;20542;-87
2023/05/06 02:03:04;;;;;;;8.93;5.63;;;;;;;;;;4952793;28;20951;-88
2023/05/06 02:05:30;;;;;;;8.10;4.97;;;;;;;;;;4938809;28;20250;-87
2023/05/06 02:07:56;;;;;;;7.87;5.93;;;;;;;;;;4954440;28;20435;-86
2023/05/06 02:10:22;;;;;;;6.83;5.03;;;;;;;;;;4952935;28;20482;-85
2023/05/06 02:12:48;;;;;;;7.07;4.67;;;;;;;;;;4951126;28;20554;-86
2023/05/06 02:15:14;;;;;;;11.73;5.53;;;;;;;;;;4954254;28;21593;-86
2023/05/06 02:17:40;;;;;;;11.98;5.55;;;;;;;;;;4939088;28;20244;-86
2023/05/06 02:20:08;;;;;;;10.82;5.93;;;12.80;99.90;;;;;;4936264;28;20184;-87
2023/05/06 02:22:34;;;;;;;9.15;4.70;;;;;;;;;;4940735;28;20227;-86
2023/05/06 02:25:00;;;;;;;7.38;4.95;;;;;;;;;;4955180;28;20277;-86
2023/05/06 02:27:26;;;;;;;9.93;5.10;;;;;;;;;;4950219;28;20668;-86
2023/05/06 02:29:52;;;;;;;6.55;4.35;;;;;;;;;;4941804;28;20196;-86
2023/05/06 02:32:18;;;;;;;19.87;5.70;;;;;;;;;;4938227;28;20230;-86
2023/05/06 02:34:44;;;;;;;9.70;5.67;;;;;;;;;;4952667;28;20432;-85
2023/05/06 02:37:10;;;;;;;9.30;7.63;;;;;;;;;;4940070;28;20440;-86
2023/05/06 02:39:36;;;;;;;8.30;6.37;;;;;;;;;;4948621;28;20447;-86
2023/05/06 02:42:02;;;;;;;11.30;7.00;;;;;;;;;;4946740;28;20467;-84
2023/05/06 02:44:28;;;;;;;12.23;6.53;;;;;;;;;;4956955;28;20453;-85
2023/05/06 02:46:54;;;;;;;11.00;7.37;;;;;;;;;;4950030;28;20195;-85
2023/05/06 02:49:20;;;;;;;15.50;8.15;;;;;;;;;;4956029;28;20442;-85
2023/05/06 02:51:46;;;;;;;14.67;7.13;;;;;;;;;;4954868;28;20608;-86
2023/05/06 02:54:12;;;;;;;11.90;6.93;;;;;;;;;;4940992;28;20435;-86
2023/05/06 02:56:38;;;;;;;13.63;8.50;;;;;;;;;;4943261;28;20445;-87
2023/05/06 02:59:04;;;;;;;12.20;7.40;;;12.20;99.90;;;;;;4947778;28;20522;-87
2023/05/06 03:01:30;;;;;;;12.20;7.03;;;;;;;;;;4957471;28;20462;-88
2023/05/06 03:03:56;;;;;;;10.87;6.60;;;;;;;;;;4943822;28;20189;-86
2023/05/06 03:06:22;;;;;;;14.10;8.20;;;;;;;;;;4949114;28;20436;-86
2023/05/06 03:08:48;;;;;;;17.23;7.33;;;;;;;;;;4958925;28;20440;-87
2023/05/06 03:11:14;;;;;;;16.03;7.93;;;;;;;;;;4956517;28;20523;-86
2023/05/06 03:13:40;;;;;;;12.85;8.00;;;;;;;;;;4953902;28;20470;-85
2023/05/06 03:16:12;;;;;;;12.00;7.10;;;12.10;99.90;;;;;;4939539;28;21150;-85
2023/05/06 03:18:38;;;;;;;13.68;7.90;;;;;;;;;;4942594;28;21446;-85
2023/05/06 03:21:03;;;;;;;16.40;9.20;;;;;;;;;;4952118;28;20204;-86
2023/05/06 03:23:30;;;;;;;11.23;7.40;;;;;;;;;;4936606;28;20440;-86
2023/05/06 03:25:56;;;;;;;17.25;8.70;;;;;;;;;;4952154;28;20525;-84
2023/05/06 03:28:21;;;;;;;15.70;8.30;;;;;;;;;;4952979;28;20271;-87
2023/05/06 03:30:47;;;;;;;15.03;8.17;;;;;;;;;;4957463;28;21119;-86
2023/05/06 03:33:13;;;;;;;17.23;8.63;;;;;;;;;;4940445;28;20587;-86
2023/05/06 03:35:39;;;;;;;15.90;8.33;;;;;;;;;;4972571;28;20459;-85
2023/05/06 03:38:06;;;;;;;15.23;8.32;;;;;;;;;;4968520;28;20475;-88
2023/05/06 03:40:32;;;;;;;14.90;9.82;;;12.00;99.90;;;;;;4957003;28;20222;-87
2023/05/06 03:42:58;;;;;;;17.80;8.93;;;;;;;;;;4933444;28;20192;-87
2023/05/06 03:45:24;;;;;;;16.37;9.30;;;;;;;;;;4931184;28;20195;-87
2023/05/06 03:47:50;;;;;;;16.50;9.60;;;;;;;;;;4953794;28;20431;-87
2023/05/06 03:50:16;;;;;;;22.30;9.00;;;;;;;;;;4954577;28;20460;-87
2023/05/06 03:52:42;;;;;;;19.63;10.70;;;;;;;;;;4942077;28;20471;-87
2023/05/06 03:55:08;;;;;;;20.38;10.13;;;12.10;99.90;;;;;;4952312;28;20443;-87
2023/05/06 03:57:34;;;;;;;16.90;9.97;;;;;;;;;;4932107;28;20191;-88
2023/05/06 04:00:00;;;;;;;18.02;9.57;;;;;;;;;;4938641;28;20943;-87
2023/05/06 04:02:28;;;;;;;15.53;8.60;;;;;;;;;;4947191;28;20196;-87
2023/05/06 04:04:53;;;;;;;20.98;10.25;;;12.20;99.90;;;;;;4937429;28;20443;-87
2023/05/06 04:07:19;;;;;;;22.93;10.27;;;;;;;;;;4947324;28;20202;-86
2023/05/06 04:09:45;;;;;;;16.40;8.80;;;;;;;;;;4947047;28;20188;-87
2023/05/06 04:12:11;;;;;;;18.97;10.87;;;;;;;;;;4940644;28;21357;-86
2023/05/06 04:14:37;;;;;;;14.73;9.97;;;;;;;;;;4931086;28;20446;-86
2023/05/06 04:17:04;;;;;;;15.10;9.90;;;;;;;;;;4950213;28;20467;-86
2023/05/06 04:19:31;;;;;;;14.25;9.15;;;;;;;;;;4936482;28;21011;-87
2023/05/06 04:21:57;;;;;;;16.40;9.35;;;;;;;;;;4933314;28;20200;-86
2023/05/06 04:24:23;;;;;;;19.30;9.73;;;;;;;;;;4940349;28;20195;-86
2023/05/06 04:26:49;;;;;;;21.73;8.80;;;;;;;;;;4938104;28;20196;-88
2023/05/06 04:29:15;;;;;;;12.50;8.52;;;;;;;;;;4944609;28;21106;-87
2023/05/06 04:31:41;;;;;;;21.17;9.50;;;;;;;;;;4946163;28;20208;-87
2023/05/06 04:34:09;;;;;;;19.13;9.70;;;;;;;;;;4945234;28;20432;-89
2023/05/06 04:36:35;;;;;;;17.47;11.00;;;;;;;;;;4925291;28;20453;-89
2023/05/06 04:39:02;;;;;;;16.47;9.27;;;;;;;;;;4951212;28;21180;-90
2023/05/06 04:41:29;;;;;;;14.03;8.17;;;;;;;;;;4952287;28;20459;-88
2023/05/06 04:43:56;;;;;;;10.30;8.40;;;;;;;;;;4942166;28;20447;-86
2023/05/06 04:46:22;;;;;;;9.77;6.07;;;;;;;;;;4934842;28;20444;-89
2023/05/06 04:48:48;;;;;;;9.30;7.17;;;;;;;;;;4926716;28;20486;-89
2023/05/06 04:51:14;;;;;;;10.33;6.67;;;;;;;;;;4945650;28;20487;-89
2023/05/06 04:53:40;;;;;;;6.27;5.17;;;;;;;;;;4947132;28;20508;-88
2023/05/06 04:56:06;;;;;;;6.10;4.73;;;;;;;;;;4948955;28;20740;-88
2023/05/06 04:58:33;;;;;;;11.10;6.30;;;;;;;;;;4948261;28;20435;-88
2023/05/06 05:01:03;;;;;;;11.10;6.50;;;21.80;99.90;;;;;;4961188;28;21334;-87
2023/05/06 05:03:29;;;;;;;8.43;5.90;;;;;;;;;;4974574;28;20498;-89
2023/05/06 05:05:55;;;;;;;6.57;4.87;;;;;;;;;;4951581;28;21351;-89
2023/05/06 05:08:20;;;;;;;7.17;5.17;;;26.00;99.90;;;;;;4930546;28;20952;-88
2023/05/06 05:10:46;;;;;;;6.10;4.03;;;;;;;;;;4950462;28;20506;-90
2023/05/06 05:13:13;;;;;;;5.17;4.67;;;;;;;;;;4928263;28;20204;-89
2023/05/06 05:15:39;;;;;;;7.97;5.00;;;;;;;;;;4934794;28;20588;-88
2023/05/06 05:18:05;;;;;;;9.87;3.90;;;;;;;;;;4952215;28;20445;-89
2023/05/06 05:20:31;;;;;;;6.30;4.77;;;;;;;;;;4952489;28;21015;-88
2023/05/06 05:22:57;;;;;;;4.97;4.47;;;;;;;;;;4929207;28;20528;-88
2023/05/06 05:25:23;;;;;;;4.93;3.63;;;;;;;;;;4937461;28;20444;-89
2023/05/06 05:27:49;;;;;;;8.80;5.07;;;;;;;;;;4967469;28;20437;-87
2023/05/06 05:30:18;;;;;;;4.43;4.07;;;;;;;;;;4961623;28;20617;-88
2023/05/06 05:32:44;;;;;;;4.23;3.83;;;;;;;;;;4953946;28;20474;-89
2023/05/06 05:35:10;;;;;;;4.90;4.50;;;;;;;;;;4948429;28;20448;-88
2023/05/06 05:37:36;;;;;;;4.63;4.23;;;;;;;;;;4938782;28;20459;-89
2023/05/06 05:40:02;;;;;;;4.93;4.53;;;;;;;;;;4931789;28;20448;-89
2023/05/06 05:42:32;;;;;;;5.37;4.80;;;;;;;;;;4946966;28;20483;-89
2023/05/06 05:44:58;;;;;;;5.60;5.10;;;;;;;;;;4936003;28;20432;-89
2023/05/06 05:47:24;;;;;;;6.70;6.00;;;;;;;;;;4949436;28;20432;-89
2023/05/06 05:49:50;;;;;;;5.23;4.83;;;;;;;;;;4958706;28;20475;-89
2023/05/06 05:52:16;;;;;;;5.80;5.30;;;;;;;;;;4952337;28;20476;-90
2023/05/06 05:54:42;;;;;;;5.90;4.80;;;;;;;;;;4944356;28;21101;-90
2023/05/06 05:57:08;;;;;;;6.13;5.30;;;;;;;;;;4939841;28;20933;-89
2023/05/06 05:59:34;;;;;;;4.80;4.50;;;;;;;;;;4935819;28;20997;-89
2023/05/06 06:02:00;;;;;;;5.50;5.10;;;;;;;;;;4944355;28;20552;-89
2023/05/06 06:04:26;;;;;;;6.57;5.77;;;;;;;;;;4939271;28;20447;-90
2023/05/06 06:06:52;;;;;;;6.40;5.80;;;;;;;;;;4955424;28;20438;-90
2023/05/06 06:09:18;;;;;;;5.50;4.80;;;;;;;;;;4940108;28;20474;-90
2023/05/06 06:11:45;;;;;;;4.93;4.53;;;;;;;;;;4955197;28;20503;-89
2023/05/06 06:14:10;;;;;;;4.93;4.53;;;;;;;;;;4938178;28;20441;-88
2023/05/06 06:16:37;;;;;;;4.33;3.40;;;;;;;;;;4947609;28;20438;-87
2023/05/06 06:19:02;;;;;;;5.03;3.97;;;;;;;;;;4950665;28;20440;-88
2023/05/06 06:21:29;;;;;;;4.10;3.43;;;;;;;;;;4951084;28;20471;-88
2023/05/06 06:23:55;;;;;;;6.70;3.50;;;;;;;;;;4938698;28;21092;-89
2023/05/06 06:26:21;;;;;;;5.03;3.20;;;;;;;;;;4944463;28;20450;-87
2023/05/06 06:28:47;;;;;;;3.90;3.60;;;;;;;;;;4960183;28;20449;-86
2023/05/06 06:31:13;;;;;;;5.70;3.50;;;;;;;;;;4952873;28;20528;-86
2023/05/06 06:33:39;;;;;;;5.80;3.80;;;;;;;;;;4951563;28;20481;-88
2023/05/06 06:36:05;;;;;;;3.63;3.33;;;;;;;;;;4951718;28;20440;-88
2023/05/06 06:38:31;;;;;;;4.47;3.23;;;;;;;;;;4939503;28;20449;-87
2023/05/06 06:40:57;;;;;;;3.80;3.37;;;;;;;;;;4952102;28;20915;-88
2023/05/06 06:43:23;;;;;;;3.10;2.80;;;;;;;;;;4950482;28;21013;-89
2023/05/06 06:45:49;;;;;;;6.73;3.63;;;;;;;;;;4941133;28;20452;-88
2023/05/06 06:48:16;;;;;;;4.13;3.37;;;;;;;;;;4948061;28;20524;-88
2023/05/06 06:50:42;;;;;;;4.63;2.80;;;25.50;90.00;;;;;;4931144;28;20533;-87
2023/05/06 06:53:08;;;;;;;3.53;3.17;;;;;;;;;;4945023;28;20565;-89
2023/05/06 06:55:35;;;;;;;3.63;2.70;;;;;;;;;;4944835;28;20863;-88
2023/05/06 06:58:00;;;;;;;3.47;2.70;;;;;;;;;;4940343;28;20432;-88
2023/05/06 07:00:26;;;;;;;3.50;3.20;;;;;;;;;;4936577;28;20503;-88
2023/05/06 07:02:52;;;;;;;3.40;2.30;;;;;;;;;;4941480;28;22198;-87
2023/05/06 07:05:19;;;;;;;4.90;3.53;;;;;;;;;;4944967;28;23167;-87
2023/05/06 07:07:45;;;;;;;2.83;2.63;;;;;;;;;;4935857;28;20446;-89
2023/05/06 07:10:11;;;;;;;3.60;2.57;;;;;;;;;;4940721;28;20456;-88
2023/05/06 07:12:37;;;;;;;7.13;4.43;;;;;;;;;;4939228;28;21055;-89
2023/05/06 07:15:05;;;;;;;4.13;3.83;;;35.50;60.70;;;;;;4927003;28;20470;-89
2023/05/06 07:17:32;;;;;;;4.93;4.63;;;36.10;56.10;;;;;;4943396;28;21015;-90
2023/05/06 07:19:58;;;;;;;5.33;4.97;;;;;;;;;;4930426;28;20572;-89
2023/05/06 07:22:24;;;;;;;6.07;5.73;;;;;;;;;;4939154;28;20448;-89
2023/05/06 07:24:50;;;;;;;5.70;5.40;;;;;;;;;;4950682;28;20438;-88
2023/05/06 07:27:16;;;;;;;5.83;5.43;;;;;;;;;;4933453;28;20449;-89
2023/05/06 07:29:42;;;;;;;6.40;6.10;;;;;;;;;;4952068;28;20449;-90
2023/05/06 07:32:08;;;;;;;5.63;5.20;;;;;;;;;;4922108;28;20501;-90
2023/05/06 07:34:35;;;;;;;6.87;6.47;;;;;;;;;;4929945;28;20439;-89
2023/05/06 07:37:01;;;;;;;6.83;6.43;;;;;;;;;;4944319;28;20427;-88
2023/05/06 07:39:27;;;;;;;5.47;5.20;;;;;;;;;;4944308;28;20473;-87
2023/05/06 07:41:53;;;;;;;6.43;6.03;;;;;;;;;;4934594;28;20471;-89
2023/05/06 07:44:19;;;;;;;6.40;6.00;;;;;;;;;;4946862;28;23372;-90
2023/05/06 07:46:45;;;;;;;6.13;5.83;;;;;;;;;;4939443;28;20444;-90
2023/05/06 07:49:11;;;;;;;6.87;6.47;;;;;;;;;;4937868;28;20546;-89
2023/05/06 07:51:37;;;;;;;7.07;6.67;;;;;;;;;;4941359;28;20561;-86
2023/05/06 07:54:03;;;;;;;7.10;6.70;;;;;;;;;;4954719;28;20434;-88
2023/05/06 07:56:29;;;;;;;6.80;6.40;;;;;;;;;;4953121;28;20449;-88
2023/05/06 07:58:55;;;;;;;5.90;5.60;;;;;;;;;;4949498;28;21142;-88
2023/05/06 08:01:21;;;;;;;6.43;6.07;;;;;;;;;;4942211;28;20466;-89
2023/05/06 08:03:48;;;;;;;6.47;6.17;;;37.40;48.70;;;;;;4938101;28;20433;-89
2023/05/06 08:06:14;;;;;;;7.00;6.60;;;37.70;44.90;;;;;;4943802;28;20450;-88
2023/05/06 08:08:40;;;;;;;6.97;6.50;;;;;;;;;;4965812;28;20597;-88
2023/05/06 08:11:06;;;;;;;6.50;6.20;;;;;;;;;;4969641;28;20474;-89
2023/05/06 08:13:32;;;;;;;6.67;6.37;;;;;;;;;;4942501;28;20493;-87
2023/05/06 08:15:59;;;;;;;6.77;6.47;;;;;;;;;;4944081;28;20980;-88
2023/05/06 08:18:25;;;;;;;6.70;6.20;;;;;;;;;;4931761;28;20435;-89
2023/05/06 08:20:51;;;;;;;7.13;6.77;;;;;;;;;;4940007;28;20462;-87
2023/05/06 08:23:17;;;;;;;6.30;6.00;;;;;;;;;;4932362;28;20558;-86
2023/05/06 08:25:43;;;;;;;6.70;6.30;;;;;;;;;;4939107;28;20455;-86
2023/05/06 08:28:09;;;;;;;5.77;5.40;;;;;;;;;;4913317;28;20439;-87
2023/05/06 08:30:35;;;;;;;6.67;6.37;;;;;;;;;;4947772;28;20462;-87
2023/05/06 08:33:01;;;;;;;6.17;5.73;;;;;;;;;;4936206;28;20469;-89
2023/05/06 08:35:27;;;;;;;5.50;5.30;;;;;;;;;;4927141;28;20572;-88
2023/05/06 08:37:53;;;;;;;6.60;6.30;;;;;;;;;;4947018;28;20548;-89
2023/05/06 08:40:21;;;;;;;6.37;5.97;;;33.10;43.50;;;;;;4935841;28;20208;-90
2023/05/06 08:42:48;;;;;;;6.00;5.80;;;32.40;43.60;;;;;;4946087;28;20521;-87
2023/05/06 08:45:17;;;;;;;5.77;5.50;;;31.00;45.80;;;;;;4926896;28;21267;-89
2023/05/06 08:47:43;;;;;;;4.93;4.73;;;;;;;;;;4933472;28;20547;-85
2023/05/06 08:50:09;;;;;;;6.07;5.67;;;31.90;46.40;;;;;;4946645;28;20515;-83
2023/05/06 08:52:36;;;;;;;4.93;4.70;;;32.00;45.70;;;;;;4950568;28;20526;-87
2023/05/06 08:55:04;;;;;;;5.10;4.90;;;32.00;47.60;;;;;;4940489;28;20486;-87
2023/05/06 08:57:30;;;;;;;5.63;5.23;;;32.40;47.60;;;;;;4929432;28;20768;-86
2023/05/06 08:59:56;;;;;;;5.00;4.80;;;;;;;;;;4951649;28;20449;-86
2023/05/06 09:02:23;;;;;;;4.13;3.93;;;;;;;;;;4939435;28;20470;-85
2023/05/06 09:04:49;;;;;;;7.77;5.20;;;;;;;;;;4922191;28;20443;-85
2023/05/06 09:07:15;;;;;;;5.00;4.70;;;;;;;;;;4943330;28;20445;-87
2023/05/06 09:09:41;;;;;;;4.30;4.10;;;;;;;;;;4950705;28;20542;-85
2023/05/06 09:12:11;;;;;;;4.80;4.60;;;32.60;49.10;;;;;;4936153;28;20556;-87
2023/05/06 09:14:37;;;;;;;4.67;4.47;;;;;;;;;;4941713;28;20467;-84
2023/05/06 09:17:02;;;;;;;4.90;4.50;;;;;;;;;;4957515;28;20811;-85
2023/05/06 09:19:28;;;;;;;4.70;4.40;;;;;;;;;;4930808;28;20437;-85
2023/05/06 09:21:56;;;;;;;3.93;3.73;;;;;;;;;;4934355;28;20541;-85
2023/05/06 09:24:22;;;;;;;4.40;4.10;;;30.30;48.80;;;;;;4944442;28;20432;-86
2023/05/06 09:26:51;;;;;;;3.63;3.50;;;29.90;48.50;;;;;;4946547;28;20479;-87
2023/05/06 09:29:17;;;;;;;4.80;4.50;;;;;;;;;;4951106;28;20445;-87
2023/05/06 09:31:46;;;;;;;4.20;4.00;;;30.60;48.70;;;;;;4950481;28;20463;-86
2023/05/06 09:34:13;;;;;;;4.30;4.10;;;30.80;48.20;;;;;;4946932;28;20842;-85
2023/05/06 09:36:39;;;;;;;3.80;3.60;;;;;;;;;;4933986;28;20443;-84
2023/05/06 09:39:05;;;;;;;3.93;3.80;;;;;;;;;;4931885;28;20464;-86
2023/05/06 09:41:32;;;;;;;4.10;3.90;;;;;;;;;;4937624;28;20565;-85
2023/05/06 09:43:58;;;;;;;4.83;4.63;;;;;;;;;;4951873;28;20574;-87
2023/05/06 09:46:25;;;;;;;4.13;3.93;;;31.90;47.40;;;;;;4951755;28;20751;-84
2023/05/06 09:48:51;;;;;;;5.07;4.77;;;;;;;;;;4937500;28;20452;-85
2023/05/06 09:51:17;;;;;;;4.90;4.70;;;;;;;;;;4945660;28;20477;-87
2023/05/06 09:53:44;;;;;;;4.73;4.53;;;33.50;43.80;;;;;;4932097;28;20479;-87
2023/05/06 09:56:10;;;;;;;4.60;4.40;;;;;;;;;;4951818;28;20447;-85
2023/05/06 09:58:37;;;;;;;5.40;5.10;;;;;;;;;;4947534;28;20443;-85
2023/05/06 10:01:04;;;;;;;4.87;4.57;;;33.60;44.90;;;;;;4950928;28;20461;-86
2023/05/06 10:03:30;;;;;;;4.83;4.63;;;;;;;;;;4948108;28;20448;-84
2023/05/06 10:05:59;;;;;;;5.57;5.07;;;31.80;50.00;;;;;;4944721;28;21185;-85
2023/05/06 10:08:25;;;;;;;4.30;4.10;;;;;;;;;;4951281;28;20848;-85
2023/05/06 10:10:52;;;;;;;4.30;4.10;;;;;;;;;;4951148;28;20766;-86
2023/05/06 10:13:20;;;;;;;5.40;4.20;;;31.80;47.80;;;;;;4941948;28;20461;-86
2023/05/06 10:15:47;;;;;;;4.13;3.93;;;32.50;47.20;;;;;;4932281;28;20447;-84
2023/05/06 10:18:17;;;;;;;4.37;4.17;;;32.40;47.40;;;;;;4937799;28;20462;-85
2023/05/06 10:20:44;;;;;;;5.17;4.70;;;31.50;46.70;;;;;;4943779;28;20491;-85
2023/05/06 10:23:30;;;;;;;4.43;4.20;;;30.10;50.40;;;;;;4943994;28;20456;-85
2023/05/06 10:25:56;;;;;;;6.40;3.40;;;27.80;51.90;;;;;;4938935;28;20868;-84
2023/05/06 10:28:22;;;;;;;3.77;2.43;;;;;;;;;;4955856;28;20506;-86
2023/05/06 10:30:49;;;;;;;2.37;2.23;;;26.20;56.30;;;;;;4950321;28;20468;-85
2023/05/06 10:33:16;;;;;;;3.23;1.93;;;;;;;;;;4935581;28;20463;-86
2023/05/06 10:36:00;;;;;;;1.97;1.87;;;25.20;65.40;;;;;;4958767;28;20449;-85
2023/05/06 10:38:44;;;;;;;2.10;1.93;;;25.30;63.10;;;;;;4953271;28;20433;-84
2023/05/06 10:41:12;;;;;;;4.37;2.10;;;25.70;61.20;;;;;;4956224;28;21342;-84
2023/05/06 10:43:43;;;;;;;2.27;2.07;;;25.60;61.70;;;;;;4951950;28;20444;-83
2023/05/06 10:46:16;;;;;;;3.03;2.17;;;25.70;59.20;;;;;;4951421;28;20527;-83
2023/05/06 10:49:03;;;;;;;2.30;2.10;;;25.30;60.10;;;;;;4951691;28;20433;-82
2023/05/06 10:51:33;;;;;;;4.10;1.83;;;24.20;66.20;;;;;;4973291;28;20456;-84
2023/05/06 10:54:04;;;;;;;2.00;1.80;;;23.00;74.40;;;;;;4972046;28;20475;-87
2023/05/06 10:56:35;;;;;;;1.50;1.40;;;22.30;78.20;;;;;;4951537;28;20455;-84
2023/05/06 10:59:06;;;;;;;2.50;1.60;;;22.20;81.80;;;;;;4936597;28;20530;-87
2023/05/06 11:01:33;;;;;;;1.93;1.27;;;22.30;87.80;;;;;;4934434;28;21045;-85
2023/05/06 11:04:14;;;;;;;1.83;1.63;;;22.40;89.50;;;;;;4950819;28;21011;-85
2023/05/06 11:06:45;;;;;;;3.43;1.80;;;22.20;90.20;;;;;;4957558;28;20722;-84
2023/05/06 11:09:25;;;;;;;2.27;1.70;;;22.30;89.20;;;;;;4946466;28;20431;-85
2023/05/06 11:12:04;;;;;;;2.60;1.83;;;22.90;85.10;;;;;;4954003;28;20570;-85
2023/05/06 11:14:34;;;;;;;4.50;2.00;;;23.40;84.30;;;;;;4946896;28;20535;-84
2023/05/06 11:17:02;;;;;;;5.00;1.53;;;23.80;84.60;;;;;;4947325;28;20535;-83
2023/05/06 11:19:35;;;;;;;2.63;1.67;;;23.90;83.80;;;;;;4936008;28;20503;-84
2023/05/06 11:22:03;;;;;;;3.80;1.90;;;23.70;88.00;;;;;;4946005;28;20509;-82
2023/05/06 11:24:31;;;;;;;1.43;1.33;;;23.80;86.20;;;;;;4951849;28;20826;-83
2023/05/06 11:26:58;;;;;;;1.63;1.53;;;23.70;91.40;;;;;;4956632;28;20455;-85
2023/05/06 11:29:24;;;;;;;1.87;1.50;;;23.50;91.00;;;;;;4953405;28;20809;-83
2023/05/06 11:31:52;;;;;;;2.90;1.60;;;23.50;91.80;;;;;;4939312;28;20462;-85
2023/05/06 11:34:31;;;;;;;1.80;1.60;;;23.80;91.90;;;;;;4938106;28;20447;-85
2023/05/06 11:37:09;;;;;;;1.37;1.27;;;24.10;91.40;;;;;;4952890;28;20434;-84
2023/05/06 11:39:35;;;;;;;3.20;2.40;;;24.60;88.50;;;;;;4931270;28;20440;-85
2023/05/06 11:42:05;;;;;;;1.47;1.37;;;24.60;89.20;;;;;;4949815;28;20455;-85
2023/05/06 11:44:36;;;;;;;1.60;1.50;;;24.40;77.50;;;;;;4948017;28;20434;-87
2023/05/06 11:47:04;;;;;;;3.13;1.80;;;23.90;77.40;;;;;;4957325;28;20464;-87
2023/05/06 11:49:38;;;;;;;1.57;1.27;;;23.70;74.30;;;;;;4939834;28;20444;-83
2023/05/06 11:52:04;;;;;;;1.50;1.10;;;23.60;75.00;;;;;;4953521;28;20447;-85
2023/05/06 11:54:34;;;;;;;2.63;1.53;;;22.80;81.10;;;;;;4945147;28;20440;-85
2023/05/06 11:57:00;;;;;;;2.77;1.50;;;22.70;81.80;;;;;;4949302;28;20427;-84
2023/05/06 11:59:30;;;;;;;2.00;1.47;;;22.80;86.50;;;;;;4955989;28;20506;-85
2023/05/06 12:01:58;;;;;;;1.20;1.10;;;22.80;87.20;;;;;;4945393;28;20203;-85
2023/05/06 12:04:23;;;;;;;2.17;1.57;;;23.00;87.20;;;;;;4953913;28;20935;-83
2023/05/06 12:06:49;;;;;;;2.53;1.23;;;22.80;85.30;;;;;;4949613;28;20455;-82
2023/05/06 12:09:15;;;;;;;1.57;1.27;;;;;;;;;;4964188;28;20184;-85
2023/05/06 12:11:41;;;;;;;1.50;1.33;;;;;;;;;;4959043;28;20216;-84
2023/05/06 12:14:09;;;;;;;2.53;1.30;;;22.70;84.90;;;;;;4945232;28;20464;-84
2023/05/06 12:16:35;;;;;;;1.43;1.30;;;22.90;86.60;;;;;;4944927;28;20444;-84
2023/05/06 12:19:02;;;;;;;1.73;1.63;;;22.80;87.20;;;;;;4932951;28;20450;-85
2023/05/06 12:21:28;;;;;;;1.17;1.07;;;23.00;85.10;;;;;;4958528;28;20451;-87
2023/05/06 12:23:56;;;;;;;2.60;1.53;;;23.10;86.00;;;;;;4952976;28;20440;-85
2023/05/06 12:26:22;;;;;;;3.30;1.07;;;;;;;;;;4952598;28;20458;-86
2023/05/06 12:29:08;;;;;;;1.17;1.07;;;23.00;84.00;;;;;;4954236;28;20914;-88
2023/05/06 12:31:35;;;;;;;1.73;1.50;;;22.90;86.30;;;;;;4950487;28;20467;-87
2023/05/06 12:34:01;;;;;;;1.50;1.40;;;22.50;82.60;;;;;;4941176;28;20471;-86
2023/05/06 12:36:27;;;;;;;1.40;1.23;;;;;;;;;;4949085;28;20246;-85
2023/05/06 12:38:56;;;;;;;2.17;1.10;;;22.00;86.60;;;;;;4957089;28;21191;-85
2023/05/06 12:41:22;;;;;;;1.63;1.03;;;22.00;87.40;;;;;;4951300;28;20459;-85
2023/05/06 12:43:48;;;;;;;1.80;1.47;;;21.60;90.00;;;;;;4952232;28;21351;-85
2023/05/06 12:46:15;;;;;;;1.70;1.47;;;22.00;91.00;;;;;;4953679;28;20443;-85
2023/05/06 12:48:58;;;;;;;1.40;1.13;;;22.50;87.10;;;;;;4951067;28;20195;-86
2023/05/06 12:51:24;;;;;;;1.43;1.33;;;23.10;88.60;;;;;;4913797;28;20481;-84
2023/05/06 12:53:50;;;;;;;1.83;1.60;;;;;;;;;;4957566;28;20486;-85
2023/05/06 12:56:15;;;;;;;2.40;1.13;;;22.80;84.90;;;;;;4970028;28;20984;-87
2023/05/06 12:58:41;;;;;;;4.70;1.40;;;23.00;85.90;;;;;;4970482;28;20442;-84
2023/05/06 13:01:07;;;;;;;1.10;1.00;;;;;;;;;;4975028;28;20230;-86
2023/05/06 13:03:39;;;;;;;5.43;1.40;;;23.90;81.20;;;;;;4969783;28;20240;-85
2023/05/06 13:06:05;;;;;;;4.43;2.20;;;;;;;;;;4954925;28;20469;-86
2023/05/06 13:08:31;;;;;;;2.70;1.50;;;24.70;81.70;;;;;;4970091;28;20459;-86
2023/05/06 13:10:58;;;;;;;3.43;1.40;;;;;;;;;;4969754;28;20479;-85
2023/05/06 13:13:24;;;;;;;1.50;1.40;;;;;;;;;;4974732;28;20537;-84
2023/05/06 13:15:52;;;;;;;1.70;1.47;;;24.70;76.30;;;;;;4973790;28;20513;-87
2023/05/06 13:18:18;;;;;;;5.67;1.83;;;;;;;;;;4972941;28;20820;-86
2023/05/06 13:20:44;;;;;;;1.63;1.30;;;;;;;;;;4970958;28;20447;-85
2023/05/06 13:23:10;;;;;;;1.57;1.47;;;;;;;;;;4971901;28;20450;-85
2023/05/06 13:25:36;;;;;;;1.43;1.33;;;;;;;;;;4967947;28;20446;-84
2023/05/06 13:28:02;;;;;;;1.57;1.10;;;24.00;74.20;;;;;;4972692;28;20438;-87
2023/05/06 13:30:28;;;;;;;1.43;0.90;;;;;;;;;;4966413;28;20458;-84
2023/05/06 13:32:53;;;;;;;2.53;1.50;;;24.10;73.50;;;;;;4993897;28;20262;-84
2023/05/06 13:35:19;;;;;;;0.93;0.83;;;;;;;;;;4992863;28;20530;-83
2023/05/06 13:37:45;;;;;;;1.90;1.40;;;;;;;;;;4982565;28;20206;-84
2023/05/06 13:40:11;;;;;;;1.40;1.30;;;;;;;;;;4976945;28;21478;-86
2023/05/06 13:42:37;;;;;;;1.77;1.03;;;;;;;;;;4962712;28;20487;-85
2023/05/06 13:45:03;;;;;;;1.43;1.07;;;;;;;;;;4969923;28;20469;-84
2023/05/06 13:47:30;;;;;;;1.00;1.00;;;;;;;;;;4966336;28;20471;-85
2023/05/06 13:49:56;;;;;;;1.20;1.10;;;24.10;64.60;;;;;;4927756;28;20509;-87
2023/05/06 13:52:22;;;;;;;1.43;1.17;;;;;;;;;;4971278;28;20482;-89
2023/05/06 13:54:48;;;;;;;1.77;0.90;;;;;;;;;;4965843;28;20463;-88
2023/05/06 13:57:14;;;;;;;1.50;1.40;;;;;;;;;;4964323;28;20859;-88
2023/05/06 13:59:40;;;;;;;1.10;1.00;;;;;;;;;;4968270;28;20435;-88